createdAt,value
2023-05-21T00:00:26.926Z,79.45
2023-05-21T00:05:28.874Z,79.44
2023-05-21T00:10:30.601Z,79.37
2023-05-21T00:15:32.363Z,79.81
2023-05-21T00:20:34.136Z,80.23
2023-05-21T00:25:36.041Z,80.18
2023-05-21T00:30:38.196Z,80.08
2023-05-21T00:35:40.083Z,80.49
2023-05-21T00:40:41.859Z,80.78
2023-05-21T00:45:47.517Z,80.63
2023-05-21T00:50:50.208Z,80.34
2023-05-21T00:55:52.069Z,80.77
2023-05-21T01:00:57.063Z,80.74
2023-05-21T01:06:01.504Z,81.02
2023-05-21T01:11:05.194Z,81.19
2023-05-21T01:16:08.990Z,81.16
2023-05-21T01:21:11.195Z,81.08
2023-05-21T01:26:13.132Z,80.48
2023-05-21T01:31:26.419Z,80.00
2023-05-21T01:36:34.789Z,79.81
2023-05-21T01:41:41.170Z,79.96
2023-05-21T01:46:42.893Z,80.44
2023-05-21T01:51:45.118Z,79.83
2023-05-21T01:56:48.044Z,79.87
2023-05-21T02:01:49.983Z,80.15
2023-05-21T02:06:52.038Z,79.90
2023-05-21T02:11:54.324Z,80.01
2023-05-21T02:16:56.848Z,80.11
2023-05-21T02:21:58.532Z,81.14
2023-05-21T02:27:00.402Z,80.92
2023-05-21T02:32:02.827Z,80.93
2023-05-21T02:37:04.674Z,81.18
2023-05-21T02:42:06.599Z,81.27
2023-05-21T02:47:10.413Z,81.55
2023-05-21T02:52:12.966Z,81.07
2023-05-21T02:57:15.263Z,80.74
2023-05-21T03:02:17.204Z,80.71
2023-05-21T03:07:20.122Z,80.71
2023-05-21T03:12:22.203Z,80.90
2023-05-21T03:17:23.992Z,80.94
2023-05-21T03:22:25.895Z,80.60
2023-05-21T03:27:28.010Z,80.37
2023-05-21T03:32:30.280Z,80.18
2023-05-21T03:37:32.727Z,79.98
2023-05-21T03:42:35.269Z,79.98
2023-05-21T03:47:37.338Z,79.59
2023-05-21T03:52:41.321Z,79.54
2023-05-21T03:57:43.804Z,78.71
2023-05-21T04:07:15.329Z,71.98
2023-05-21T04:12:19.184Z,67.38
2023-05-21T04:17:22.391Z,63.58
2023-05-21T04:22:26.835Z,60.84
2023-05-21T04:27:28.694Z,57.16
2023-05-21T04:32:33.546Z,56.56
2023-05-21T04:37:36.383Z,56.05
2023-05-21T04:42:39.280Z,55.26
2023-05-21T04:47:43.389Z,55.12
2023-05-21T04:52:45.739Z,55.70
2023-05-21T04:57:47.663Z,56.58
2023-05-21T05:02:49.729Z,56.86
2023-05-21T05:07:51.712Z,56.27
2023-05-21T05:12:53.668Z,55.19
2023-05-21T05:17:56.701Z,54.02
2023-05-21T05:22:58.638Z,54.21
2023-05-21T05:28:00.821Z,56.42
2023-05-21T05:33:02.997Z,58.23
2023-05-21T05:38:05.970Z,61.58
2023-05-21T05:43:07.925Z,61.15
2023-05-21T05:48:09.888Z,57.89
2023-05-21T05:53:13.423Z,55.78
2023-05-21T05:58:15.634Z,52.87
2023-05-21T06:03:41.712Z,50.99
2023-05-21T06:08:46.608Z,49.51
2023-05-21T06:13:48.497Z,48.39
2023-05-21T06:18:51.492Z,47.56
2023-05-21T06:23:53.467Z,47.49
2023-05-21T06:28:56.675Z,47.54
2023-05-21T06:34:00.008Z,48.14
2023-05-21T06:39:03.417Z,48.96
2023-05-21T06:44:06.128Z,49.61
2023-05-21T06:49:35.039Z,51.43
2023-05-21T06:54:37.121Z,53.30
2023-05-21T06:59:39.369Z,54.58
2023-05-21T07:04:41.228Z,55.66
2023-05-21T07:09:42.950Z,56.43
2023-05-21T07:14:45.268Z,56.89
2023-05-21T07:19:47.182Z,55.44
2023-05-21T07:24:49.407Z,53.52
2023-05-21T07:29:52.359Z,53.68
2023-05-21T07:34:56.730Z,54.85
2023-05-21T07:40:00.475Z,54.44
2023-05-21T07:45:03.042Z,54.18
2023-05-21T07:50:08.766Z,53.55
2023-05-21T07:55:11.313Z,53.39
2023-05-21T08:00:14.310Z,52.95
2023-05-21T08:05:24.456Z,52.39
2023-05-21T08:10:26.400Z,51.19
2023-05-21T08:15:28.363Z,50.24
2023-05-21T08:20:32.248Z,49.73
2023-05-21T08:25:34.260Z,49.67
2023-05-21T08:30:37.573Z,48.78
2023-05-21T08:35:39.529Z,47.58
2023-05-21T08:40:59.582Z,46.78
2023-05-21T08:46:04.228Z,45.88
2023-05-21T08:51:07.826Z,44.41
2023-05-21T08:56:17.855Z,44.23
2023-05-21T09:01:42.298Z,43.19
2023-05-21T09:06:54.963Z,41.84
2023-05-21T09:12:10.148Z,41.62
2023-05-21T09:17:14.935Z,42.38
2023-05-21T09:22:17.652Z,41.21
2023-05-21T09:27:19.507Z,41.15
2023-05-21T09:32:21.382Z,41.20
2023-05-21T09:37:27.569Z,40.89
2023-05-21T09:42:30.156Z,40.87
2023-05-21T09:47:32.486Z,40.46
2023-05-21T09:52:37.295Z,40.11
2023-05-21T09:57:50.887Z,40.07
2023-05-21T10:03:01.818Z,39.86
2023-05-21T10:08:04.892Z,39.85
2023-05-21T10:13:10.365Z,39.04
2023-05-21T10:18:13.645Z,38.22
2023-05-21T10:23:15.699Z,37.99
2023-05-21T10:28:20.707Z,37.47
2023-05-21T10:33:25.073Z,36.03
2023-05-21T10:38:27.967Z,35.53
2023-05-21T10:43:48.588Z,36.12
2023-05-21T10:48:56.066Z,35.80
2023-05-21T10:54:36.996Z,36.09
2023-05-21T10:59:49.346Z,36.10
2023-05-21T11:04:58.751Z,34.98
2023-05-21T11:10:32.781Z,34.51
2023-05-21T11:15:57.747Z,35.12
2023-05-21T11:21:06.812Z,34.78
2023-05-21T11:26:08.561Z,34.24
2023-05-21T11:31:27.254Z,35.39
2023-05-21T11:36:29.135Z,35.57
2023-05-21T11:41:31.065Z,35.56
2023-05-21T11:46:34.274Z,35.92
2023-05-21T11:51:36.725Z,36.42
2023-05-21T11:56:42.028Z,36.31
2023-05-21T12:01:44.293Z,36.16
2023-05-21T12:06:46.129Z,35.56
2023-05-21T12:11:47.906Z,35.40
2023-05-21T12:16:49.952Z,35.12
2023-05-21T12:21:51.739Z,36.81
2023-05-21T12:26:55.195Z,36.55
2023-05-21T12:32:01.774Z,36.70
2023-05-21T12:37:05.508Z,37.63
2023-05-21T12:42:08.496Z,37.42
2023-05-21T12:47:11.263Z,37.24
2023-05-21T12:52:14.466Z,36.47
2023-05-21T12:57:17.474Z,37.41
2023-05-21T13:02:22.153Z,38.73
2023-05-21T13:07:26.331Z,38.40
2023-05-21T13:12:30.028Z,39.07
2023-05-21T13:17:32.315Z,38.84
2023-05-21T13:22:35.734Z,37.68
2023-05-21T13:27:39.696Z,38.63
2023-05-21T13:32:42.681Z,37.73
2023-05-21T13:37:45.071Z,37.78
2023-05-21T13:42:48.824Z,37.82
2023-05-21T13:47:50.789Z,36.83
2023-05-21T13:52:52.489Z,36.90
2023-05-21T13:57:54.379Z,37.40
2023-05-21T14:02:56.795Z,38.57
2023-05-21T14:07:58.950Z,37.11
2023-05-21T14:13:11.228Z,37.09
2023-05-21T14:18:17.765Z,35.97
2023-05-21T14:23:19.576Z,35.88
2023-05-21T14:28:21.859Z,35.76
2023-05-21T14:33:23.681Z,36.06
2023-05-21T14:38:25.995Z,37.62
2023-05-21T14:43:27.754Z,38.02
2023-05-21T14:48:29.514Z,36.85
2023-05-21T14:53:31.323Z,36.35
2023-05-21T14:58:33.182Z,36.36
2023-05-21T15:03:35.046Z,36.57
2023-05-21T15:08:36.958Z,36.75
2023-05-21T15:13:39.568Z,37.86
2023-05-21T15:18:41.357Z,38.34
2023-05-21T15:23:43.065Z,38.12
2023-05-21T15:28:44.797Z,38.42
2023-05-21T15:33:46.566Z,38.35
2023-05-21T15:38:48.633Z,38.12
2023-05-21T15:43:50.394Z,38.08
2023-05-21T15:48:52.152Z,37.50
2023-05-21T15:53:54.512Z,37.70
2023-05-21T15:58:58.650Z,38.71
2023-05-21T16:04:03.372Z,39.94
2023-05-21T16:09:05.563Z,39.74
2023-05-21T16:14:07.408Z,39.77
2023-05-21T16:19:09.169Z,39.92
2023-05-21T16:24:11.023Z,39.96
2023-05-21T16:29:14.851Z,39.68
2023-05-21T16:34:16.611Z,39.80
2023-05-21T16:39:18.442Z,40.56
2023-05-21T16:44:20.424Z,41.00
2023-05-21T16:49:22.180Z,41.10
2023-05-21T16:54:23.913Z,41.31
2023-05-21T16:59:25.676Z,41.06
2023-05-21T17:04:27.424Z,42.28
2023-05-21T17:09:29.397Z,43.47
2023-05-21T17:14:34.178Z,44.39
2023-05-21T17:19:37.557Z,44.41
2023-05-21T17:24:39.505Z,44.36
2023-05-21T17:29:41.492Z,44.74
2023-05-21T17:34:44.051Z,45.30
2023-05-21T17:39:46.050Z,46.16
2023-05-21T17:44:47.785Z,47.06
2023-05-21T17:49:49.512Z,47.68
2023-05-21T17:54:51.491Z,48.33
2023-05-21T17:59:53.276Z,49.13
2023-05-21T18:04:55.136Z,51.22
2023-05-21T18:09:57.048Z,51.67
2023-05-21T18:14:58.869Z,52.58
2023-05-21T18:20:00.648Z,52.90
2023-05-21T18:25:03.548Z,53.48
2023-05-21T18:30:08.585Z,55.32
2023-05-21T18:35:12.005Z,56.18
2023-05-21T18:40:16.980Z,56.02
2023-05-21T18:45:18.757Z,57.77
2023-05-21T18:50:20.605Z,58.86
2023-05-21T18:55:22.621Z,58.75
2023-05-21T19:00:24.348Z,58.90
2023-05-21T19:05:26.389Z,59.84
2023-05-21T19:10:30.697Z,60.82
2023-05-21T19:15:33.021Z,61.51
2023-05-21T19:20:36.984Z,61.59
2023-05-21T19:25:39.254Z,63.37
2023-05-21T19:30:41.097Z,63.12
2023-05-21T19:35:43.489Z,62.51
2023-05-21T19:40:45.512Z,62.06
2023-05-21T19:45:47.426Z,61.93
2023-05-21T19:50:49.185Z,61.48
2023-05-21T19:55:51.188Z,60.93
2023-05-21T20:00:55.803Z,61.15
2023-05-21T20:05:58.682Z,61.40
2023-05-21T20:11:00.877Z,61.55
2023-05-21T20:16:02.613Z,61.85
2023-05-21T20:21:06.398Z,61.59
2023-05-21T20:26:08.388Z,61.17
2023-05-21T20:31:10.196Z,60.98
2023-05-21T20:36:15.292Z,61.34
2023-05-21T20:41:17.321Z,61.23
2023-05-21T20:46:19.944Z,62.10
2023-05-21T20:51:21.842Z,62.54
2023-05-21T20:56:39.884Z,63.44
2023-05-21T21:01:43.643Z,63.07
2023-05-21T21:06:47.277Z,62.54
2023-05-21T21:11:50.740Z,62.73
2023-05-21T21:16:54.350Z,62.62
2023-05-21T21:21:56.246Z,62.75
2023-05-21T21:26:58.023Z,62.88
2023-05-21T21:31:59.890Z,63.13
2023-05-21T21:37:01.669Z,63.42
2023-05-21T21:42:04.309Z,63.61
2023-05-21T21:47:09.855Z,64.51
2023-05-21T21:52:14.751Z,64.70
2023-05-21T21:57:16.535Z,64.64
2023-05-21T22:02:18.525Z,64.31
2023-05-21T22:07:20.799Z,63.85
2023-05-21T22:12:22.691Z,63.90
2023-05-21T22:17:24.496Z,64.47
2023-05-21T22:22:26.747Z,64.96
2023-05-21T22:27:28.687Z,65.42
2023-05-21T22:32:30.778Z,66.03
2023-05-21T22:37:32.586Z,66.09
2023-05-21T22:42:35.151Z,66.23
2023-05-21T22:47:39.734Z,65.68
2023-05-21T22:52:41.929Z,66.52
2023-05-21T22:57:44.309Z,67.23
2023-05-21T23:02:47.505Z,67.07
2023-05-21T23:07:50.036Z,66.97
2023-05-21T23:12:54.192Z,66.97
2023-05-21T23:17:56.920Z,67.18
2023-05-21T23:22:58.911Z,67.20
2023-05-21T23:28:00.673Z,67.56
2023-05-21T23:33:02.632Z,67.88
2023-05-21T23:38:05.219Z,68.17
2023-05-21T23:43:18.131Z,68.13
2023-05-21T23:48:23.344Z,68.65
2023-05-21T23:53:25.886Z,68.70
2023-05-21T23:58:27.625Z,68.92
